createdAt,value
2023-05-07T00:01:20.482Z,1019.71
2023-05-07T00:16:21.259Z,1019.72
2023-05-07T00:31:21.667Z,1019.66
2023-05-07T00:46:21.458Z,1019.70
2023-05-07T01:01:22.557Z,1019.66
2023-05-07T01:16:22.760Z,1019.76
2023-05-07T01:31:23.823Z,1019.84
2023-05-07T01:46:23.725Z,1019.87
2023-05-07T02:01:24.219Z,1019.86
2023-05-07T02:16:24.143Z,1019.87
2023-05-07T02:31:25.264Z,1019.99
2023-05-07T02:46:25.468Z,1020.15
2023-05-07T03:01:25.322Z,1020.27
2023-05-07T03:16:25.773Z,1020.30
2023-05-07T03:31:25.584Z,1020.33
2023-05-07T03:46:25.794Z,1020.33
2023-05-07T04:01:26.662Z,1020.39
2023-05-07T04:16:26.410Z,1020.49
2023-05-07T04:31:26.843Z,1020.54
2023-05-07T04:46:26.931Z,1020.70
2023-05-07T05:01:27.093Z,1020.80
2023-05-07T05:16:28.335Z,1020.94
2023-05-07T05:31:28.629Z,1020.96
2023-05-07T05:46:28.739Z,1021.01
2023-05-07T06:01:28.704Z,1021.06
2023-05-07T06:16:28.856Z,1021.20
2023-05-07T06:31:28.997Z,1021.16
2023-05-07T06:46:29.075Z,1021.35
2023-05-07T07:01:29.284Z,1021.54
2023-05-07T07:16:29.222Z,1021.55
2023-05-07T07:31:29.483Z,1021.73
2023-05-07T07:46:29.790Z,1021.55
2023-05-07T08:01:29.974Z,1021.50
2023-05-07T08:16:31.094Z,1021.44
2023-05-07T08:31:31.451Z,1021.38
2023-05-07T08:46:31.507Z,1021.47
2023-05-07T09:01:31.586Z,1021.59
2023-05-07T09:16:31.991Z,1021.55
2023-05-07T09:31:32.064Z,1021.62
2023-05-07T09:46:33.575Z,1021.51
2023-05-07T10:01:34.313Z,1021.67
2023-05-07T10:16:34.469Z,1021.75
2023-05-07T10:31:35.138Z,1021.77
2023-05-07T10:46:36.288Z,1021.78
2023-05-07T11:01:37.529Z,1021.71
2023-05-07T11:16:38.311Z,1021.78
2023-05-07T11:31:38.649Z,1021.72
2023-05-07T11:46:39.465Z,1021.61
2023-05-07T12:01:39.622Z,1021.54
2023-05-07T12:16:39.596Z,1021.57
2023-05-07T12:31:40.247Z,1021.55
2023-05-07T12:46:39.992Z,1021.49
2023-05-07T13:01:40.480Z,1021.59
2023-05-07T13:16:40.755Z,1021.58
2023-05-07T13:31:40.997Z,1021.59
2023-05-07T13:46:41.265Z,1021.45
2023-05-07T14:01:41.542Z,1021.52
2023-05-07T14:16:42.303Z,1021.35
2023-05-07T14:31:42.445Z,1021.34
2023-05-07T14:46:42.767Z,1021.32
2023-05-07T15:01:42.850Z,1021.38
2023-05-07T15:16:43.086Z,1021.61
2023-05-07T15:31:43.903Z,1021.61
2023-05-07T15:46:43.978Z,1021.51
2023-05-07T16:01:44.013Z,1021.46
2023-05-07T16:16:44.392Z,1021.63
2023-05-07T16:31:44.197Z,1021.40
2023-05-07T16:46:44.661Z,1021.60
2023-05-07T17:01:44.876Z,1021.61
2023-05-07T17:16:45.121Z,1021.60
2023-05-07T17:31:45.037Z,1021.80
2023-05-07T17:46:45.368Z,1022.12
2023-05-07T18:01:45.643Z,1022.26
2023-05-07T18:16:45.985Z,1022.29
2023-05-07T18:31:46.129Z,1022.49
2023-05-07T18:46:46.018Z,1022.56
2023-05-07T19:01:46.776Z,1022.61
2023-05-07T19:16:47.556Z,1022.89
2023-05-07T19:31:47.603Z,1023.07
2023-05-07T19:46:47.745Z,1023.09
2023-05-07T20:01:47.802Z,1023.20
2023-05-07T20:16:48.678Z,1023.34
2023-05-07T20:31:49.223Z,1023.46
2023-05-07T20:46:49.374Z,1023.40
2023-05-07T21:01:50.128Z,1023.58
2023-05-07T21:16:51.734Z,1023.67
2023-05-07T21:31:52.382Z,1023.88
2023-05-07T21:46:52.512Z,1023.91
2023-05-07T22:01:52.922Z,1024.07
2023-05-07T22:16:53.816Z,1024.09
2023-05-07T22:31:54.366Z,1024.10
2023-05-07T22:46:54.425Z,1024.25
2023-05-07T23:01:55.973Z,1024.26
2023-05-07T23:16:56.318Z,1024.28
2023-05-07T23:31:56.800Z,1024.28
2023-05-07T23:46:57.171Z,1024.19
